sensor_id;sensor_type;location;lat;lon;timestamp;P1;durP1;ratioP1;P2;durP2;ratioP2
28459;SDS011;32528;45.712;9.192;2023-02-22T00:10:51;39.00;;;20.17;;
28459;SDS011;32528;45.712;9.192;2023-02-22T00:12:53;45.38;;;23.48;;
28459;SDS011;32528;45.712;9.192;2023-02-22T00:14:54;39.78;;;23.30;;
28459;SDS011;32528;45.712;9.192;2023-02-22T00:16:55;48.33;;;27.88;;
28459;SDS011;32528;45.712;9.192;2023-02-22T00:25:01;42.50;;;21.17;;
28459;SDS011;32528;45.712;9.192;2023-02-22T00:27:02;46.60;;;26.35;;
28459;SDS011;32528;45.712;9.192;2023-02-22T00:29:02;43.33;;;23.48;;
28459;SDS011;32528;45.712;9.192;2023-02-22T00:31:04;37.40;;;22.00;;
28459;SDS011;32528;45.712;9.192;2023-02-22T00:33:06;44.00;;;26.50;;
28459;SDS011;32528;45.712;9.192;2023-02-22T00:35:07;37.75;;;22.95;;
28459;SDS011;32528;45.712;9.192;2023-02-22T00:45:18;48.67;;;20.92;;
28459;SDS011;32528;45.712;9.192;2023-02-22T00:47:20;47.10;;;26.33;;
28459;SDS011;32528;45.712;9.192;2023-02-22T00:51:26;39.20;;;20.33;;
28459;SDS011;32528;45.712;9.192;2023-02-22T00:53:27;36.28;;;20.10;;
28459;SDS011;32528;45.712;9.192;2023-02-22T00:55:29;40.25;;;21.70;;
28459;SDS011;32528;45.712;9.192;2023-02-22T00:57:32;37.90;;;19.90;;
28459;SDS011;32528;45.712;9.192;2023-02-22T00:59:36;35.50;;;20.48;;
28459;SDS011;32528;45.712;9.192;2023-02-22T01:01:36;36.53;;;21.27;;
28459;SDS011;32528;45.712;9.192;2023-02-22T01:03:40;39.22;;;19.27;;
28459;SDS011;32528;45.712;9.192;2023-02-22T01:09:42;38.50;;;19.80;;
28459;SDS011;32528;45.712;9.192;2023-02-22T01:11:43;49.35;;;20.70;;
28459;SDS011;32528;45.712;9.192;2023-02-22T01:13:44;34.88;;;18.35;;
28459;SDS011;32528;45.712;9.192;2023-02-22T01:17:48;37.70;;;18.73;;
28459;SDS011;32528;45.712;9.192;2023-02-22T01:21:51;39.72;;;20.40;;
28459;SDS011;32528;45.712;9.192;2023-02-22T01:23:54;34.58;;;19.67;;
28459;SDS011;32528;45.712;9.192;2023-02-22T01:48:26;41.03;;;17.65;;
28459;SDS011;32528;45.712;9.192;2023-02-22T01:50:32;42.92;;;21.58;;
28459;SDS011;32528;45.712;9.192;2023-02-22T01:52:39;41.05;;;20.98;;
28459;SDS011;32528;45.712;9.192;2023-02-22T01:58:50;44.70;;;22.08;;
28459;SDS011;32528;45.712;9.192;2023-02-22T02:00:54;52.55;;;26.00;;
28459;SDS011;32528;45.712;9.192;2023-02-22T02:03:07;51.92;;;27.30;;
28459;SDS011;32528;45.712;9.192;2023-02-22T02:05:15;49.50;;;27.30;;
28459;SDS011;32528;45.712;9.192;2023-02-22T02:07:16;51.00;;;28.50;;
28459;SDS011;32528;45.712;9.192;2023-02-22T02:13:39;32.30;;;18.25;;
28459;SDS011;32528;45.712;9.192;2023-02-22T02:15:40;37.25;;;21.23;;
28459;SDS011;32528;45.712;9.192;2023-02-22T02:20:02;42.15;;;20.58;;
28459;SDS011;32528;45.712;9.192;2023-02-22T02:22:30;31.60;;;19.85;;
28459;SDS011;32528;45.712;9.192;2023-02-22T02:27:21;34.20;;;19.55;;
28459;SDS011;32528;45.712;9.192;2023-02-22T02:36:42;40.77;;;21.03;;
28459;SDS011;32528;45.712;9.192;2023-02-22T02:41:11;40.28;;;20.77;;
28459;SDS011;32528;45.712;9.192;2023-02-22T02:43:31;47.20;;;25.27;;
28459;SDS011;32528;45.712;9.192;2023-02-22T02:45:48;33.08;;;20.58;;
28459;SDS011;32528;45.712;9.192;2023-02-22T02:47:55;45.90;;;25.83;;
28459;SDS011;32528;45.712;9.192;2023-02-22T02:50:02;36.13;;;20.92;;
28459;SDS011;32528;45.712;9.192;2023-02-22T02:52:13;35.42;;;19.13;;
28459;SDS011;32528;45.712;9.192;2023-02-22T02:54:15;48.97;;;26.80;;
28459;SDS011;32528;45.712;9.192;2023-02-22T03:09:07;68.93;;;37.08;;
28459;SDS011;32528;45.712;9.192;2023-02-22T04:30:17;128.10;;;64.57;;
28459;SDS011;32528;45.712;9.192;2023-02-22T04:32:18;145.35;;;71.10;;
28459;SDS011;32528;45.712;9.192;2023-02-22T04:34:19;150.20;;;74.45;;
28459;SDS011;32528;45.712;9.192;2023-02-22T04:36:23;147.85;;;73.68;;
28459;SDS011;32528;45.712;9.192;2023-02-22T04:38:25;160.10;;;77.88;;
28459;SDS011;32528;45.712;9.192;2023-02-22T04:40:27;149.43;;;74.53;;
28459;SDS011;32528;45.712;9.192;2023-02-22T04:42:28;151.68;;;79.50;;
28459;SDS011;32528;45.712;9.192;2023-02-22T04:44:29;152.77;;;75.18;;
28459;SDS011;32528;45.712;9.192;2023-02-22T04:46:29;168.20;;;77.57;;
28459;SDS011;32528;45.712;9.192;2023-02-22T04:48:30;150.40;;;76.53;;
28459;SDS011;32528;45.712;9.192;2023-02-22T04:50:31;177.68;;;81.22;;
28459;SDS011;32528;45.712;9.192;2023-02-22T04:52:32;165.48;;;79.43;;
28459;SDS011;32528;45.712;9.192;2023-02-22T04:54:33;162.57;;;81.25;;
28459;SDS011;32528;45.712;9.192;2023-02-22T04:56:35;167.48;;;80.22;;
28459;SDS011;32528;45.712;9.192;2023-02-22T05:00:37;160.23;;;76.95;;
28459;SDS011;32528;45.712;9.192;2023-02-22T05:02:38;169.70;;;81.97;;
28459;SDS011;32528;45.712;9.192;2023-02-22T05:04:39;180.65;;;79.07;;
28459;SDS011;32528;45.712;9.192;2023-02-22T05:06:39;167.20;;;79.47;;
28459;SDS011;32528;45.712;9.192;2023-02-22T05:08:40;180.07;;;82.25;;
28459;SDS011;32528;45.712;9.192;2023-02-22T05:10:41;159.65;;;79.25;;
28459;SDS011;32528;45.712;9.192;2023-02-22T05:12:42;170.27;;;81.25;;
28459;SDS011;32528;45.712;9.192;2023-02-22T05:14:43;152.65;;;80.35;;
28459;SDS011;32528;45.712;9.192;2023-02-22T05:16:44;151.40;;;77.65;;
28459;SDS011;32528;45.712;9.192;2023-02-22T05:18:47;153.32;;;81.90;;
28459;SDS011;32528;45.712;9.192;2023-02-22T05:20:47;172.95;;;82.07;;
28459;SDS011;32528;45.712;9.192;2023-02-22T05:22:48;181.38;;;81.55;;
28459;SDS011;32528;45.712;9.192;2023-02-22T05:24:50;191.05;;;85.47;;
28459;SDS011;32528;45.712;9.192;2023-02-22T05:26:51;163.88;;;83.88;;
28459;SDS011;32528;45.712;9.192;2023-02-22T05:28:53;160.68;;;81.85;;
28459;SDS011;32528;45.712;9.192;2023-02-22T05:30:53;157.95;;;81.85;;
28459;SDS011;32528;45.712;9.192;2023-02-22T05:32:54;160.65;;;81.93;;
28459;SDS011;32528;45.712;9.192;2023-02-22T05:34:55;168.98;;;83.43;;
28459;SDS011;32528;45.712;9.192;2023-02-22T05:36:56;177.43;;;83.68;;
28459;SDS011;32528;45.712;9.192;2023-02-22T05:38:57;156.88;;;81.32;;
28459;SDS011;32528;45.712;9.192;2023-02-22T05:40:57;177.82;;;82.35;;
28459;SDS011;32528;45.712;9.192;2023-02-22T05:42:58;165.50;;;84.88;;
28459;SDS011;32528;45.712;9.192;2023-02-22T05:45:01;177.77;;;83.70;;
28459;SDS011;32528;45.712;9.192;2023-02-22T05:47:02;164.23;;;83.28;;
28459;SDS011;32528;45.712;9.192;2023-02-22T05:49:03;162.75;;;81.20;;
28459;SDS011;32528;45.712;9.192;2023-02-22T05:51:06;177.63;;;87.68;;
28459;SDS011;32528;45.712;9.192;2023-02-22T05:53:08;166.18;;;81.85;;
28459;SDS011;32528;45.712;9.192;2023-02-22T05:55:10;174.10;;;83.30;;
28459;SDS011;32528;45.712;9.192;2023-02-22T05:57:13;168.23;;;82.72;;
28459;SDS011;32528;45.712;9.192;2023-02-22T05:59:13;180.63;;;86.90;;
28459;SDS011;32528;45.712;9.192;2023-02-22T06:01:14;162.95;;;82.30;;
28459;SDS011;32528;45.712;9.192;2023-02-22T06:03:15;162.38;;;80.70;;
28459;SDS011;32528;45.712;9.192;2023-02-22T06:05:16;164.82;;;82.97;;
28459;SDS011;32528;45.712;9.192;2023-02-22T06:07:18;172.55;;;83.18;;
28459;SDS011;32528;45.712;9.192;2023-02-22T06:09:19;173.75;;;83.75;;
28459;SDS011;32528;45.712;9.192;2023-02-22T06:11:20;169.23;;;85.82;;
28459;SDS011;32528;45.712;9.192;2023-02-22T06:13:20;169.13;;;84.18;;
28459;SDS011;32528;45.712;9.192;2023-02-22T06:15:22;167.75;;;84.22;;
28459;SDS011;32528;45.712;9.192;2023-02-22T06:17:24;180.07;;;87.68;;
28459;SDS011;32528;45.712;9.192;2023-02-22T06:19:26;174.00;;;86.60;;
28459;SDS011;32528;45.712;9.192;2023-02-22T06:21:27;172.65;;;83.55;;
28459;SDS011;32528;45.712;9.192;2023-02-22T06:23:28;174.27;;;84.15;;
28459;SDS011;32528;45.712;9.192;2023-02-22T06:25:29;171.90;;;85.22;;
28459;SDS011;32528;45.712;9.192;2023-02-22T06:27:30;163.85;;;84.35;;
28459;SDS011;32528;45.712;9.192;2023-02-22T06:29:32;184.52;;;81.28;;
28459;SDS011;32528;45.712;9.192;2023-02-22T06:31:33;159.70;;;82.72;;
28459;SDS011;32528;45.712;9.192;2023-02-22T06:33:34;198.38;;;87.70;;
28459;SDS011;32528;45.712;9.192;2023-02-22T06:35:34;170.05;;;83.72;;
28459;SDS011;32528;45.712;9.192;2023-02-22T06:37:35;167.43;;;83.35;;
28459;SDS011;32528;45.712;9.192;2023-02-22T06:39:37;166.60;;;85.95;;
28459;SDS011;32528;45.712;9.192;2023-02-22T06:41:41;182.25;;;85.95;;
28459;SDS011;32528;45.712;9.192;2023-02-22T06:43:42;179.30;;;85.88;;
28459;SDS011;32528;45.712;9.192;2023-02-22T06:45:43;179.85;;;86.13;;
28459;SDS011;32528;45.712;9.192;2023-02-22T06:47:44;171.73;;;84.13;;
28459;SDS011;32528;45.712;9.192;2023-02-22T06:49:56;165.63;;;85.32;;
28459;SDS011;32528;45.712;9.192;2023-02-22T06:51:59;164.75;;;83.53;;
28459;SDS011;32528;45.712;9.192;2023-02-22T06:54:00;157.82;;;75.80;;
28459;SDS011;32528;45.712;9.192;2023-02-22T06:56:01;164.68;;;80.45;;
28459;SDS011;32528;45.712;9.192;2023-02-22T06:58:02;167.00;;;81.82;;
28459;SDS011;32528;45.712;9.192;2023-02-22T07:00:04;177.27;;;82.43;;
28459;SDS011;32528;45.712;9.192;2023-02-22T07:02:05;180.57;;;85.40;;
28459;SDS011;32528;45.712;9.192;2023-02-22T07:04:06;170.32;;;87.97;;
28459;SDS011;32528;45.712;9.192;2023-02-22T07:06:06;186.68;;;88.22;;
28459;SDS011;32528;45.712;9.192;2023-02-22T07:08:08;165.65;;;83.47;;
28459;SDS011;32528;45.712;9.192;2023-02-22T07:10:15;175.85;;;84.28;;
28459;SDS011;32528;45.712;9.192;2023-02-22T07:12:26;194.98;;;99.65;;
28459;SDS011;32528;45.712;9.192;2023-02-22T07:14:27;158.52;;;82.35;;
28459;SDS011;32528;45.712;9.192;2023-02-22T07:16:28;175.07;;;87.93;;
28459;SDS011;32528;45.712;9.192;2023-02-22T07:18:28;176.48;;;84.82;;
28459;SDS011;32528;45.712;9.192;2023-02-22T07:20:29;175.85;;;87.93;;
28459;SDS011;32528;45.712;9.192;2023-02-22T07:22:31;177.48;;;83.80;;
28459;SDS011;32528;45.712;9.192;2023-02-22T07:24:31;182.98;;;85.63;;
28459;SDS011;32528;45.712;9.192;2023-02-22T07:26:37;172.38;;;86.82;;
28459;SDS011;32528;45.712;9.192;2023-02-22T07:28:40;182.73;;;85.05;;
28459;SDS011;32528;45.712;9.192;2023-02-22T07:30:40;169.77;;;81.50;;
28459;SDS011;32528;45.712;9.192;2023-02-22T07:32:42;178.55;;;82.57;;
28459;SDS011;32528;45.712;9.192;2023-02-22T07:34:44;170.43;;;85.38;;
28459;SDS011;32528;45.712;9.192;2023-02-22T07:36:44;172.77;;;84.47;;
28459;SDS011;32528;45.712;9.192;2023-02-22T07:38:47;169.40;;;83.30;;
28459;SDS011;32528;45.712;9.192;2023-02-22T07:40:47;180.77;;;84.28;;
28459;SDS011;32528;45.712;9.192;2023-02-22T07:42:51;183.02;;;85.82;;
28459;SDS011;32528;45.712;9.192;2023-02-22T07:44:53;175.93;;;84.65;;
28459;SDS011;32528;45.712;9.192;2023-02-22T07:46:54;178.98;;;86.20;;
28459;SDS011;32528;45.712;9.192;2023-02-22T07:48:54;169.15;;;83.72;;
28459;SDS011;32528;45.712;9.192;2023-02-22T07:50:55;179.25;;;89.47;;
28459;SDS011;32528;45.712;9.192;2023-02-22T07:52:58;179.48;;;88.55;;
28459;SDS011;32528;45.712;9.192;2023-02-22T07:55:00;174.98;;;86.30;;
28459;SDS011;32528;45.712;9.192;2023-02-22T07:57:01;181.82;;;88.60;;
28459;SDS011;32528;45.712;9.192;2023-02-22T07:59:02;170.95;;;88.15;;
28459;SDS011;32528;45.712;9.192;2023-02-22T08:01:04;171.15;;;85.90;;
28459;SDS011;32528;45.712;9.192;2023-02-22T08:03:08;168.85;;;84.35;;
28459;SDS011;32528;45.712;9.192;2023-02-22T08:05:12;180.85;;;87.22;;
28459;SDS011;32528;45.712;9.192;2023-02-22T08:07:14;175.75;;;88.47;;
28459;SDS011;32528;45.712;9.192;2023-02-22T08:09:14;180.77;;;87.65;;
28459;SDS011;32528;45.712;9.192;2023-02-22T08:11:15;194.38;;;88.65;;
28459;SDS011;32528;45.712;9.192;2023-02-22T08:13:16;170.02;;;86.55;;
28459;SDS011;32528;45.712;9.192;2023-02-22T08:15:27;173.73;;;84.00;;
28459;SDS011;32528;45.712;9.192;2023-02-22T08:17:30;187.48;;;90.53;;
28459;SDS011;32528;45.712;9.192;2023-02-22T08:19:30;174.95;;;82.90;;
28459;SDS011;32528;45.712;9.192;2023-02-22T08:21:31;180.82;;;86.72;;
28459;SDS011;32528;45.712;9.192;2023-02-22T08:23:32;165.10;;;83.20;;
28459;SDS011;32528;45.712;9.192;2023-02-22T08:25:32;189.40;;;88.60;;
28459;SDS011;32528;45.712;9.192;2023-02-22T08:27:34;175.25;;;84.45;;
28459;SDS011;32528;45.712;9.192;2023-02-22T08:29:34;176.18;;;89.45;;
28459;SDS011;32528;45.712;9.192;2023-02-22T08:31:35;171.50;;;85.25;;
28459;SDS011;32528;45.712;9.192;2023-02-22T08:33:36;178.18;;;85.43;;
28459;SDS011;32528;45.712;9.192;2023-02-22T08:35:37;175.75;;;83.43;;
28459;SDS011;32528;45.712;9.192;2023-02-22T08:37:43;166.27;;;85.07;;
28459;SDS011;32528;45.712;9.192;2023-02-22T08:39:45;187.52;;;86.45;;
28459;SDS011;32528;45.712;9.192;2023-02-22T08:41:45;180.85;;;84.80;;
28459;SDS011;32528;45.712;9.192;2023-02-22T08:43:47;177.55;;;86.05;;
28459;SDS011;32528;45.712;9.192;2023-02-22T08:45:48;162.63;;;83.22;;
28459;SDS011;32528;45.712;9.192;2023-02-22T08:47:49;157.77;;;82.47;;
28459;SDS011;32528;45.712;9.192;2023-02-22T08:49:52;183.95;;;83.43;;
28459;SDS011;32528;45.712;9.192;2023-02-22T08:51:53;162.68;;;83.20;;
28459;SDS011;32528;45.712;9.192;2023-02-22T08:53:53;167.57;;;80.50;;
28459;SDS011;32528;45.712;9.192;2023-02-22T08:55:54;157.02;;;79.45;;
28459;SDS011;32528;45.712;9.192;2023-02-22T08:57:55;160.90;;;80.18;;
28459;SDS011;32528;45.712;9.192;2023-02-22T08:59:55;163.23;;;82.13;;
28459;SDS011;32528;45.712;9.192;2023-02-22T09:01:56;152.40;;;80.85;;
28459;SDS011;32528;45.712;9.192;2023-02-22T09:03:57;157.98;;;82.18;;
28459;SDS011;32528;45.712;9.192;2023-02-22T09:05:58;158.13;;;80.95;;
28459;SDS011;32528;45.712;9.192;2023-02-22T09:07:58;162.57;;;82.30;;
28459;SDS011;32528;45.712;9.192;2023-02-22T09:09:59;157.77;;;80.93;;
28459;SDS011;32528;45.712;9.192;2023-02-22T09:12:00;160.05;;;80.22;;
28459;SDS011;32528;45.712;9.192;2023-02-22T09:14:01;159.50;;;79.70;;
28459;SDS011;32528;45.712;9.192;2023-02-22T09:16:02;172.45;;;83.45;;
28459;SDS011;32528;45.712;9.192;2023-02-22T09:18:04;150.10;;;79.47;;
28459;SDS011;32528;45.712;9.192;2023-02-22T09:20:09;160.95;;;82.15;;
28459;SDS011;32528;45.712;9.192;2023-02-22T09:22:11;154.27;;;80.80;;
28459;SDS011;32528;45.712;9.192;2023-02-22T09:24:12;150.27;;;76.65;;
28459;SDS011;32528;45.712;9.192;2023-02-22T09:26:13;146.88;;;79.70;;
28459;SDS011;32528;45.712;9.192;2023-02-22T09:28:16;148.07;;;80.32;;
28459;SDS011;32528;45.712;9.192;2023-02-22T09:30:27;161.27;;;83.43;;
28459;SDS011;32528;45.712;9.192;2023-02-22T09:32:32;149.90;;;78.05;;
28459;SDS011;32528;45.712;9.192;2023-02-22T09:34:32;159.38;;;81.45;;
28459;SDS011;32528;45.712;9.192;2023-02-22T09:36:34;168.38;;;79.28;;
28459;SDS011;32528;45.712;9.192;2023-02-22T09:38:35;146.80;;;78.88;;
28459;SDS011;32528;45.712;9.192;2023-02-22T09:40:36;148.98;;;78.65;;
28459;SDS011;32528;45.712;9.192;2023-02-22T09:42:46;149.02;;;76.53;;
28459;SDS011;32528;45.712;9.192;2023-02-22T09:45:15;144.93;;;73.53;;
28459;SDS011;32528;45.712;9.192;2023-02-22T09:47:40;144.55;;;76.90;;
28459;SDS011;32528;45.712;9.192;2023-02-22T09:50:07;150.68;;;77.70;;
28459;SDS011;32528;45.712;9.192;2023-02-22T09:52:16;160.45;;;81.20;;
28459;SDS011;32528;45.712;9.192;2023-02-22T09:56:34;156.50;;;76.18;;
28459;SDS011;32528;45.712;9.192;2023-02-22T09:58:38;151.20;;;76.68;;
28459;SDS011;32528;45.712;9.192;2023-02-22T10:00:42;143.25;;;72.88;;
28459;SDS011;32528;45.712;9.192;2023-02-22T10:02:59;145.95;;;73.60;;
28459;SDS011;32528;45.712;9.192;2023-02-22T10:05:12;129.45;;;70.45;;
28459;SDS011;32528;45.712;9.192;2023-02-22T10:07:25;144.25;;;72.25;;
28459;SDS011;32528;45.712;9.192;2023-02-22T10:09:46;151.88;;;75.13;;
28459;SDS011;32528;45.712;9.192;2023-02-22T10:11:50;143.68;;;76.57;;
28459;SDS011;32528;45.712;9.192;2023-02-22T10:16:13;139.13;;;70.88;;
28459;SDS011;32528;45.712;9.192;2023-02-22T10:25:37;145.00;;;68.63;;
28459;SDS011;32528;45.712;9.192;2023-02-22T10:28:02;141.35;;;68.43;;
28459;SDS011;32528;45.712;9.192;2023-02-22T10:32:31;142.77;;;70.75;;
28459;SDS011;32528;45.712;9.192;2023-02-22T10:34:45;134.40;;;68.55;;
28459;SDS011;32528;45.712;9.192;2023-02-22T10:36:48;137.90;;;71.55;;
28459;SDS011;32528;45.712;9.192;2023-02-22T10:38:58;148.87;;;80.27;;
28459;SDS011;32528;45.712;9.192;2023-02-22T10:43:08;125.78;;;65.13;;
28459;SDS011;32528;45.712;9.192;2023-02-22T10:47:37;135.07;;;65.30;;
28459;SDS011;32528;45.712;9.192;2023-02-22T10:49:40;142.10;;;77.30;;
28459;SDS011;32528;45.712;9.192;2023-02-22T10:51:47;137.23;;;70.18;;
28459;SDS011;32528;45.712;9.192;2023-02-22T10:54:00;115.00;;;63.55;;
28459;SDS011;32528;45.712;9.192;2023-02-22T10:56:27;118.80;;;62.13;;
28459;SDS011;32528;45.712;9.192;2023-02-22T10:58:28;115.43;;;61.85;;
28459;SDS011;32528;45.712;9.192;2023-02-22T11:06:46;125.72;;;62.75;;
28459;SDS011;32528;45.712;9.192;2023-02-22T11:10:55;125.03;;;65.50;;
28459;SDS011;32528;45.712;9.192;2023-02-22T11:12:59;139.38;;;66.45;;
28459;SDS011;32528;45.712;9.192;2023-02-22T11:17:27;132.52;;;68.05;;
28459;SDS011;32528;45.712;9.192;2023-02-22T11:19:32;131.52;;;68.35;;
28459;SDS011;32528;45.712;9.192;2023-02-22T11:21:36;128.38;;;66.85;;
28459;SDS011;32528;45.712;9.192;2023-02-22T11:23:39;128.25;;;63.80;;
28459;SDS011;32528;45.712;9.192;2023-02-22T11:25:41;128.10;;;74.63;;
28459;SDS011;32528;45.712;9.192;2023-02-22T11:27:43;133.10;;;73.18;;
28459;SDS011;32528;45.712;9.192;2023-02-22T11:29:46;144.48;;;62.72;;
28459;SDS011;32528;45.712;9.192;2023-02-22T11:31:50;125.80;;;72.30;;
28459;SDS011;32528;45.712;9.192;2023-02-22T11:33:55;124.28;;;64.20;;
28459;SDS011;32528;45.712;9.192;2023-02-22T11:35:58;128.52;;;61.83;;
28459;SDS011;32528;45.712;9.192;2023-02-22T11:40:19;117.47;;;61.53;;
28459;SDS011;32528;45.712;9.192;2023-02-22T11:42:26;113.65;;;58.75;;
28459;SDS011;32528;45.712;9.192;2023-02-22T11:44:29;112.50;;;59.53;;
28459;SDS011;32528;45.712;9.192;2023-02-22T11:46:40;115.80;;;57.33;;
28459;SDS011;32528;45.712;9.192;2023-02-22T11:48:44;102.70;;;53.47;;
28459;SDS011;32528;45.712;9.192;2023-02-22T11:51:18;107.45;;;57.28;;
28459;SDS011;32528;45.712;9.192;2023-02-22T11:58:23;101.82;;;54.05;;
28459;SDS011;32528;45.712;9.192;2023-02-22T12:00:52;103.32;;;50.58;;
28459;SDS011;32528;45.712;9.192;2023-02-22T12:17:22;96.55;;;53.70;;
28459;SDS011;32528;45.712;9.192;2023-02-22T12:22:02;91.47;;;50.28;;
28459;SDS011;32528;45.712;9.192;2023-02-22T12:24:21;95.35;;;50.45;;
28459;SDS011;32528;45.712;9.192;2023-02-22T12:26:30;97.30;;;50.33;;
28459;SDS011;32528;45.712;9.192;2023-02-22T12:28:39;86.47;;;47.30;;
28459;SDS011;32528;45.712;9.192;2023-02-22T12:31:03;87.53;;;46.65;;
28459;SDS011;32528;45.712;9.192;2023-02-22T12:33:08;97.55;;;49.10;;
28459;SDS011;32528;45.712;9.192;2023-02-22T12:37:46;107.05;;;49.95;;
28459;SDS011;32528;45.712;9.192;2023-02-22T12:42:13;83.93;;;42.47;;
28459;SDS011;32528;45.712;9.192;2023-02-22T12:44:21;79.05;;;41.92;;
28459;SDS011;32528;45.712;9.192;2023-02-22T12:46:32;74.30;;;39.78;;
28459;SDS011;32528;45.712;9.192;2023-02-22T12:51:00;87.05;;;42.78;;
28459;SDS011;32528;45.712;9.192;2023-02-22T12:53:27;87.72;;;46.55;;
28459;SDS011;32528;45.712;9.192;2023-02-22T12:55:39;82.68;;;44.53;;
28459;SDS011;32528;45.712;9.192;2023-02-22T13:00:29;90.13;;;45.53;;
28459;SDS011;32528;45.712;9.192;2023-02-22T13:04:59;87.00;;;45.97;;
28459;SDS011;32528;45.712;9.192;2023-02-22T13:11:48;77.68;;;39.92;;
28459;SDS011;32528;45.712;9.192;2023-02-22T13:18:18;83.75;;;44.03;;
28459;SDS011;32528;45.712;9.192;2023-02-22T13:20:33;65.45;;;32.72;;
28459;SDS011;32528;45.712;9.192;2023-02-22T13:23:00;60.20;;;30.98;;
28459;SDS011;32528;45.712;9.192;2023-02-22T13:25:34;68.03;;;32.30;;
28459;SDS011;32528;45.712;9.192;2023-02-22T13:29:47;58.08;;;26.50;;
28459;SDS011;32528;45.712;9.192;2023-02-22T13:31:53;51.60;;;23.98;;
28459;SDS011;32528;45.712;9.192;2023-02-22T13:48:06;25.92;;;14.82;;
28459;SDS011;32528;45.712;9.192;2023-02-22T13:52:42;27.48;;;14.07;;
28459;SDS011;32528;45.712;9.192;2023-02-22T13:54:52;33.08;;;14.38;;
28459;SDS011;32528;45.712;9.192;2023-02-22T13:56:58;29.00;;;14.65;;
28459;SDS011;32528;45.712;9.192;2023-02-22T13:59:02;31.05;;;14.85;;
28459;SDS011;32528;45.712;9.192;2023-02-22T14:01:04;27.27;;;16.50;;
28459;SDS011;32528;45.712;9.192;2023-02-22T14:07:46;30.55;;;15.13;;
28459;SDS011;32528;45.712;9.192;2023-02-22T14:09:49;29.50;;;13.98;;
28459;SDS011;32528;45.712;9.192;2023-02-22T14:11:51;37.88;;;16.67;;
28459;SDS011;32528;45.712;9.192;2023-02-22T14:16:22;30.73;;;17.23;;
28459;SDS011;32528;45.712;9.192;2023-02-22T14:18:23;38.47;;;18.77;;
28459;SDS011;32528;45.712;9.192;2023-02-22T14:20:35;41.63;;;21.02;;
28459;SDS011;32528;45.712;9.192;2023-02-22T14:22:37;47.78;;;24.45;;
28459;SDS011;32528;45.712;9.192;2023-02-22T14:24:42;44.38;;;22.55;;
28459;SDS011;32528;45.712;9.192;2023-02-22T14:27:00;49.30;;;22.55;;
28459;SDS011;32528;45.712;9.192;2023-02-22T14:31:10;44.70;;;23.08;;
28459;SDS011;32528;45.712;9.192;2023-02-22T14:35:53;49.25;;;24.10;;
28459;SDS011;32528;45.712;9.192;2023-02-22T14:37:54;48.53;;;23.38;;
28459;SDS011;32528;45.712;9.192;2023-02-22T14:44:12;39.80;;;18.70;;
28459;SDS011;32528;45.712;9.192;2023-02-22T14:46:16;39.40;;;18.88;;
28459;SDS011;32528;45.712;9.192;2023-02-22T14:48:34;50.42;;;22.73;;
28459;SDS011;32528;45.712;9.192;2023-02-22T14:50:44;22.40;;;10.15;;
28459;SDS011;32528;45.712;9.192;2023-02-22T14:53:06;26.30;;;12.77;;
28459;SDS011;32528;45.712;9.192;2023-02-22T14:55:15;25.15;;;14.30;;
28459;SDS011;32528;45.712;9.192;2023-02-22T14:57:26;32.55;;;16.15;;
28459;SDS011;32528;45.712;9.192;2023-02-22T14:59:43;32.05;;;16.17;;
28459;SDS011;32528;45.712;9.192;2023-02-22T15:02:10;33.25;;;16.83;;
28459;SDS011;32528;45.712;9.192;2023-02-22T15:04:16;26.85;;;13.68;;
28459;SDS011;32528;45.712;9.192;2023-02-22T15:06:26;21.55;;;10.65;;
28459;SDS011;32528;45.712;9.192;2023-02-22T15:08:30;29.00;;;14.60;;
28459;SDS011;32528;45.712;9.192;2023-02-22T15:12:49;34.63;;;16.42;;
28459;SDS011;32528;45.712;9.192;2023-02-22T15:15:09;35.28;;;20.05;;
28459;SDS011;32528;45.712;9.192;2023-02-22T15:19:27;29.95;;;14.70;;
28459;SDS011;32528;45.712;9.192;2023-02-22T15:21:30;36.88;;;18.92;;
28459;SDS011;32528;45.712;9.192;2023-02-22T15:23:38;30.38;;;16.90;;
28459;SDS011;32528;45.712;9.192;2023-02-22T15:25:47;41.53;;;18.17;;
28459;SDS011;32528;45.712;9.192;2023-02-22T15:27:49;39.78;;;19.73;;
28459;SDS011;32528;45.712;9.192;2023-02-22T15:29:54;38.80;;;20.80;;
28459;SDS011;32528;45.712;9.192;2023-02-22T15:31:58;46.88;;;23.75;;
28459;SDS011;32528;45.712;9.192;2023-02-22T15:38:28;45.55;;;20.23;;
28459;SDS011;32528;45.712;9.192;2023-02-22T15:40:29;45.53;;;23.67;;
28459;SDS011;32528;45.712;9.192;2023-02-22T15:42:41;37.38;;;18.60;;
28459;SDS011;32528;45.712;9.192;2023-02-22T15:44:44;45.55;;;22.60;;
28459;SDS011;32528;45.712;9.192;2023-02-22T15:55:23;48.40;;;21.90;;
28459;SDS011;32528;45.712;9.192;2023-02-22T15:57:27;43.88;;;20.92;;
28459;SDS011;32528;45.712;9.192;2023-02-22T15:59:30;38.00;;;19.23;;
28459;SDS011;32528;45.712;9.192;2023-02-22T16:01:37;36.15;;;18.90;;
28459;SDS011;32528;45.712;9.192;2023-02-22T16:03:47;29.52;;;17.15;;
28459;SDS011;32528;45.712;9.192;2023-02-22T16:05:55;27.13;;;14.20;;
28459;SDS011;32528;45.712;9.192;2023-02-22T16:07:57;31.52;;;17.00;;
28459;SDS011;32528;45.712;9.192;2023-02-22T16:09:58;36.53;;;17.25;;
28459;SDS011;32528;45.712;9.192;2023-02-22T16:12:08;33.88;;;15.15;;
28459;SDS011;32528;45.712;9.192;2023-02-22T16:14:28;33.67;;;15.43;;
28459;SDS011;32528;45.712;9.192;2023-02-22T16:16:33;29.80;;;16.00;;
28459;SDS011;32528;45.712;9.192;2023-02-22T16:18:36;32.85;;;17.05;;
28459;SDS011;32528;45.712;9.192;2023-02-22T16:20:38;35.45;;;18.95;;
28459;SDS011;32528;45.712;9.192;2023-02-22T16:22:39;38.58;;;19.20;;
28459;SDS011;32528;45.712;9.192;2023-02-22T16:24:46;36.03;;;17.83;;
28459;SDS011;32528;45.712;9.192;2023-02-22T16:27:01;36.38;;;18.42;;
28459;SDS011;32528;45.712;9.192;2023-02-22T16:29:07;50.92;;;18.58;;
28459;SDS011;32528;45.712;9.192;2023-02-22T16:31:08;41.72;;;18.83;;
28459;SDS011;32528;45.712;9.192;2023-02-22T16:33:09;43.17;;;19.83;;
28459;SDS011;32528;45.712;9.192;2023-02-22T16:35:15;36.90;;;19.00;;
28459;SDS011;32528;45.712;9.192;2023-02-22T16:37:20;34.35;;;17.17;;
28459;SDS011;32528;45.712;9.192;2023-02-22T16:39:23;37.97;;;17.85;;
28459;SDS011;32528;45.712;9.192;2023-02-22T16:41:26;41.45;;;19.48;;
28459;SDS011;32528;45.712;9.192;2023-02-22T16:43:28;41.53;;;21.58;;
28459;SDS011;32528;45.712;9.192;2023-02-22T16:45:31;40.63;;;19.45;;
28459;SDS011;32528;45.712;9.192;2023-02-22T16:47:34;39.40;;;20.60;;
28459;SDS011;32528;45.712;9.192;2023-02-22T16:49:35;47.50;;;22.23;;
28459;SDS011;32528;45.712;9.192;2023-02-22T16:51:44;41.20;;;21.95;;
28459;SDS011;32528;45.712;9.192;2023-02-22T16:53:48;52.88;;;24.88;;
28459;SDS011;32528;45.712;9.192;2023-02-22T16:55:53;51.97;;;27.63;;
28459;SDS011;32528;45.712;9.192;2023-02-22T16:57:58;49.47;;;24.88;;
28459;SDS011;32528;45.712;9.192;2023-02-22T17:00:00;46.33;;;25.38;;
28459;SDS011;32528;45.712;9.192;2023-02-22T17:02:00;53.55;;;25.52;;
28459;SDS011;32528;45.712;9.192;2023-02-22T17:04:24;58.45;;;26.40;;